Time;durP1;ratioP1;P1;durP2;ratioP2;P2;SDS_P1;SDS_P2;PMS_P1;PMS_P2;Temp;Humidity;BMP_temperature;BMP_pressure;BME280_temperature;BME280_humidity;BME280_pressure;Samples;Min_cycle;Max_cycle;Signal;HPM_P1;HPM_P2
2022/04/23 00:01:06;;;;;;;;;;;;;;;6.03;100.00;99546.14;1805217;79;20152;-70
2022/04/23 00:03:35;;;;;;;;;;;;;;;6.00;100.00;99526.31;1805348;79;20160;-72
2022/04/23 00:06:02;;;;;;;;;;;;;;;5.99;100.00;99528.16;1804994;80;20129;-71
2022/04/23 00:08:29;;;;;;;;;;;;;;;5.98;100.00;99519.75;1805153;79;20121;-71
2022/04/23 00:10:56;;;;;;;;;;;;;;;5.95;100.00;99510.66;1812558;79;20161;-71
2022/04/23 00:13:23;;;;;;;;;;;;;;;5.92;100.00;99500.73;1804951;79;20141;-71
2022/04/23 00:15:52;;;;;;;;;;;;;;;5.87;100.00;99495.31;1805261;79;20160;-71
2022/04/23 00:18:19;;;;;;;;;;;;;;;5.83;100.00;99491.27;1805520;80;20405;-72
2022/04/23 00:20:46;;;;;;;;;;;;;;;5.79;100.00;99489.03;1804894;79;20125;-72
2022/04/23 00:23:13;;;;;;;;;;;;;;;5.75;100.00;99479.10;1805558;79;20413;-72
2022/04/23 00:25:42;;;;;;;;;;;;;;;5.71;100.00;99479.91;1805287;79;20152;-71
2022/04/23 00:28:10;;;;;;;;;;;;;;;5.69;100.00;99479.73;1807195;79;20140;-72
2022/04/23 00:30:37;;;;;;;;;;;;;;;5.65;100.00;99472.48;1813063;79;20412;-71
2022/04/23 00:33:08;;;;;;;;;;;;;;;5.62;100.00;99460.72;1812651;79;20381;-71
2022/04/23 00:35:36;;;;;;;;;;;;;;;5.60;100.00;99455.18;1810332;79;20128;-71
2022/04/23 00:38:05;;;;;;;;;;;;;;;5.58;100.00;99451.78;1810039;79;20152;-72
2022/04/23 00:40:33;;;;;;;;;;;;;;;5.54;100.00;99435.16;1810402;79;20129;-71
2022/04/23 00:43:05;;;;;;;;;;;;;;;5.51;100.00;99422.91;1811928;79;20109;-72
2022/04/23 00:45:32;;;;;;;;;;;;;;;5.49;100.00;99411.50;1815418;79;20113;-72
2022/04/23 00:47:59;;;;;;;;;;;;;;;5.48;100.00;99403.09;1815489;79;20152;-72
2022/04/23 00:50:26;;;;;;;;;;;;;;;5.49;100.00;99383.84;1815674;79;20125;-71
2022/04/23 00:53:01;;;;;;;;;;;;;;;5.50;100.00;99360.87;1815489;79;20128;-71
2022/04/23 00:55:31;;;;;;;;;;;;;;;5.53;100.00;99353.55;1815960;79;20116;-71
2022/04/23 00:57:58;;;;;;;;;;;;;;;5.53;100.00;99327.56;1815675;78;20125;-71
2022/04/23 01:00:25;;;;;;;;;;;;;;;5.56;100.00;99314.33;1815339;79;20152;-72
2022/04/23 01:02:54;;;;;;;;;;;;;;;5.56;100.00;99292.39;1815591;79;20125;-72
2022/04/23 01:05:26;;;;;;;;;;;;;;;5.54;100.00;99282.30;1815462;79;20424;-71
2022/04/23 01:07:53;;;;;;;;;;;;;;;5.53;100.00;99272.58;1815313;79;20133;-71
2022/04/23 01:10:21;;;;;;;;;;;;;;;5.52;100.00;99248.09;1815650;79;20124;-72
2022/04/23 01:12:50;;;;;;;;;;;;;;;5.51;100.00;99237.05;1815474;79;20156;-72
2022/04/23 01:15:18;;;;;;;;;;;;;;;5.51;100.00;99225.81;1815247;79;20121;-72
2022/04/23 01:17:49;;;;;;;;;;;;;;;5.53;100.00;99199.35;1815324;79;20148;-72
2022/04/23 01:20:18;;;;;;;;;;;;;;;5.55;100.00;99195.49;1815249;78;20125;-70
2022/04/23 01:22:45;;;;;;;;;;;;;;;5.58;100.00;99179.09;1815509;79;20140;-73
2022/04/23 01:25:13;;;;;;;;;;;;;;;5.62;100.00;99154.97;1815314;79;20125;-72
2022/04/23 01:27:42;;;;;;;;;;;;;;;5.67;100.00;99141.08;1816131;79;20433;-71
2022/04/23 01:30:11;;;;;;;;;;;;;;;5.68;100.00;99123.49;1820932;78;20421;-71
2022/04/23 01:32:38;;;;;;;;;;;;;;;5.70;100.00;99116.12;1820925;79;20104;-71
2022/04/23 01:35:06;;;;;;;;;;;;;;;5.71;100.00;99111.08;1816227;79;20152;-71
2022/04/23 01:37:32;;;;;;;;;;;;;;;5.71;100.00;99111.08;1815489;79;20129;-72
2022/04/23 01:40:00;;;;;;;;;;;;;;;5.71;100.00;99103.53;1815727;79;20116;-72
2022/04/23 01:42:26;;;;;;;;;;;;;;;5.68;100.00;99090.44;1815568;79;20136;-71
2022/04/23 01:44:54;;;;;;;;;;;;;;;5.67;100.00;99088.78;1812496;79;20130;-72
2022/04/23 01:47:21;;;;;;;;;;;;;;;5.65;100.00;99090.28;1812512;78;20140;-71
2022/04/23 01:49:48;;;;;;;;;;;;;;;5.63;100.00;99080.70;1812882;79;20136;-72
2022/04/23 01:52:15;;;;;;;;;;;;;;;5.60;100.00;99081.88;1812444;79;20410;-72
2022/04/23 01:54:43;;;;;;;;;;;;;;;5.59;100.00;99088.23;1812750;79;20596;-71
2022/04/23 01:57:10;;;;;;;;;;;;;;;5.57;100.00;99082.20;1812830;79;20428;-72
2022/04/23 01:59:39;;;;;;;;;;;;;;;5.56;100.00;99084.56;1812510;79;20116;-71
2022/04/23 02:02:06;;;;;;;;;;;;;;;5.54;100.00;99079.00;1812847;79;20420;-71
2022/04/23 02:04:35;;;;;;;;;;;;;;;5.51;100.00;99078.33;1812516;79;20136;-71
2022/04/23 02:07:02;;;;;;;;;;;;;;;5.48;100.00;99079.98;1812577;79;20136;-71
2022/04/23 02:09:29;;;;;;;;;;;;;;;5.46;100.00;99086.02;1812729;79;20176;-70
2022/04/23 02:11:57;;;;;;;;;;;;;;;5.41;100.00;99080.30;1812635;79;20163;-72
2022/04/23 02:14:26;;;;;;;;;;;;;;;5.37;100.00;99075.44;1812482;79;20120;-70
2022/04/23 02:16:54;;;;;;;;;;;;;;;5.33;100.00;99074.92;1812935;79;20160;-72
2022/04/23 02:19:22;;;;;;;;;;;;;;;5.30;100.00;99063.17;1812499;79;20130;-72
2022/04/23 02:21:50;;;;;;;;;;;;;;;5.25;100.00;99056.94;1812500;78;20137;-71
2022/04/23 02:24:17;;;;;;;;;;;;;;;5.21;100.00;99052.91;1812812;79;20136;-71
2022/04/23 02:26:43;;;;;;;;;;;;;;;5.17;100.00;99032.80;1812891;79;20156;-72
2022/04/23 02:29:13;;;;;;;;;;;;;;;5.17;100.00;99035.48;1816544;79;20092;-72
2022/04/23 02:31:41;;;;;;;;;;;;;;;5.15;100.00;99040.14;1818218;79;20100;-72
2022/04/23 02:34:08;;;;;;;;;;;;;;;5.12;100.00;99045.84;1815691;78;20133;-72
2022/04/23 02:36:37;;;;;;;;;;;;;;;5.10;100.00;99041.98;1812510;79;20149;-70
2022/04/23 02:39:06;;;;;;;;;;;;;;;5.11;100.00;99043.64;1812309;79;20129;-71
2022/04/23 02:41:32;;;;;;;;;;;;;;;5.11;100.00;99035.59;1812937;79;20161;-72
2022/04/23 02:44:03;;;;;;;;;;;;;;;5.12;100.00;99026.58;1816057;79;20120;-71
2022/04/23 02:46:30;;;;;;;;;;;;;;;5.14;100.00;99015.70;1817794;79;20128;-72
2022/04/23 02:48:59;;;;;;;;;;;;;;;5.16;100.00;99017.71;1817897;79;20128;-72
2022/04/23 02:51:27;;;;;;;;;;;;;;;5.18;100.00;99018.38;1811730;79;20420;-71
2022/04/23 02:53:54;;;;;;;;;;;;;;;5.19;100.00;99007.16;1817797;78;20144;-72
2022/04/23 02:56:21;;;;;;;;;;;;;;;5.22;100.00;99003.65;1818085;79;20156;-72
2022/04/23 02:58:49;;;;;;;;;;;;;;;5.25;100.00;98994.46;1817864;79;20149;-71
2022/04/23 03:01:16;;;;;;;;;;;;;;;5.28;100.00;98993.64;1817962;79;20109;-72
2022/04/23 03:03:44;;;;;;;;;;;;;;;5.33;100.00;98983.78;1818225;79;20140;-71
2022/04/23 03:06:12;;;;;;;;;;;;;;;5.38;100.00;98984.61;1817923;79;20124;-71
2022/04/23 03:08:41;;;;;;;;;;;;;;;5.41;100.00;98984.29;1818199;79;20128;-72
2022/04/23 03:11:08;;;;;;;;;;;;;;;5.44;100.00;98979.44;1817939;79;20464;-70
2022/04/23 03:13:35;;;;;;;;;;;;;;;5.50;100.00;98977.94;1818231;79;20413;-72
2022/04/23 03:16:04;;;;;;;;;;;;;;;5.55;100.00;98959.52;1818290;79;20116;-71
2022/04/23 03:18:32;;;;;;;;;;;;;;;5.60;100.00;98941.59;1817932;79;20129;-72
2022/04/23 03:21:00;;;;;;;;;;;;;;;5.60;100.00;98930.36;1817981;79;20116;-70
2022/04/23 03:23:27;;;;;;;;;;;;;;;5.59;100.00;98936.72;1818376;79;20445;-72
2022/04/23 03:25:54;;;;;;;;;;;;;;;5.58;100.00;98936.88;1818339;79;20116;-71
2022/04/23 03:28:22;;;;;;;;;;;;;;;5.56;100.00;98930.37;1805268;79;20131;-71
2022/04/23 03:30:50;;;;;;;;;;;;;;;5.56;100.00;98938.41;1784540;80;20129;-71
2022/04/23 03:33:17;;;;;;;;;;;;;;;5.58;100.00;98944.92;1786700;79;20128;-71
2022/04/23 03:35:44;;;;;;;;;;;;;;;5.59;100.00;98942.59;1808350;79;20111;-70
2022/04/23 03:38:11;;;;;;;;;;;;;;;5.62;100.00;98933.71;1808447;79;20094;-72
2022/04/23 03:40:38;;;;;;;;;;;;;;;5.65;100.00;98924.00;1808694;79;20110;-71
2022/04/23 03:43:05;;;;;;;;;;;;;;;5.68;100.00;98937.08;1808888;79;20087;-71
2022/04/23 03:45:33;;;;;;;;;;;;;;;5.73;100.00;98947.80;1808340;79;20094;-70
2022/04/23 03:48:04;;;;;;;;;;;;;;;5.77;100.00;98949.14;1808430;79;20407;-71
2022/04/23 03:50:33;;;;;;;;;;;;;;;5.82;100.00;98952.16;1808454;79;20094;-72
2022/04/23 03:53:00;;;;;;;;;;;;;;;5.85;100.00;98945.95;1808885;79;20107;-71
2022/04/23 03:55:27;;;;;;;;;;;;;;;5.88;100.00;98950.17;1809152;79;20138;-71
2022/04/23 03:57:57;;;;;;;;;;;;;;;5.90;100.00;98958.38;1808732;79;20110;-70
2022/04/23 04:00:26;;;;;;;;;;;;;;;5.96;100.00;98971.64;1808618;79;20106;-70
2022/04/23 04:02:54;;;;;;;;;;;;;;;6.03;100.00;98976.67;1808668;79;20102;-71
2022/04/23 04:05:23;;;;;;;;;;;;;;;6.11;100.00;98979.02;1808914;79;20134;-70
2022/04/23 04:07:50;;;;;;;;;;;;;;;6.16;100.00;98978.88;1815298;79;20098;-71
2022/04/23 04:10:21;;;;;;;;;;;;;;;6.23;100.00;98973.64;1809174;79;20458;-70
2022/04/23 04:12:49;;;;;;;;;;;;;;;6.32;100.00;98978.02;1809054;79;20094;-71
2022/04/23 04:15:16;;;;;;;;;;;;;;;6.45;100.00;98971.61;1808860;79;20208;-71
2022/04/23 04:17:45;;;;;;;;;;;;;;;6.61;100.00;98968.56;1809006;79;20114;-70
2022/04/23 04:20:14;;;;;;;;;;;;;;;6.77;100.00;98967.68;1809024;79;20458;-70
2022/04/23 04:22:42;;;;;;;;;;;;;;;6.95;100.00;98965.58;1808880;79;20110;-71
2022/04/23 04:25:11;;;;;;;;;;;;;;;7.13;100.00;98960.48;1809085;79;20119;-71
2022/04/23 04:27:39;;;;;;;;;;;;;;;7.29;100.00;98965.77;1805530;79;20095;-71
2022/04/23 04:30:09;;;;;;;;;;;;;;;7.45;100.00;98974.25;1772893;81;20444;-70
2022/04/23 04:32:38;;;;;;;;;;;;;;;7.60;100.00;98980.55;1772754;81;20120;-71
2022/04/23 04:35:07;;;;;;;;;;;;;;;7.77;100.00;98996.58;1776275;79;20132;-71
2022/04/23 04:37:36;;;;;;;;;;;;;;;7.87;100.00;98994.50;1776789;80;20183;-70
2022/04/23 04:40:05;;;;;;;;;;;;;;;7.96;100.00;99008.73;1777720;81;20124;-71
2022/04/23 04:42:32;;;;;;;;;;;;;;;8.06;100.00;99039.47;1776943;81;20109;-70
2022/04/23 04:44:59;;;;;;;;;;;;;;;8.14;100.00;99055.06;1799765;79;20125;-70
2022/04/23 04:47:26;;;;;;;;;;;;;;;8.17;100.00;99088.34;1810455;79;20433;-70
2022/04/23 04:49:55;;;;;;;;;;;;;;;8.20;100.00;99115.92;1810143;79;20136;-71
2022/04/23 04:52:21;;;;;;;;;;;;;;;8.21;100.00;99157.49;1810107;79;20117;-70
2022/04/23 04:54:48;;;;;;;;;;;;;;;8.22;100.00;99179.90;1810151;79;20157;-71
2022/04/23 04:57:19;;;;;;;;;;;;;;;8.24;100.00;99225.82;1810265;79;20153;-71
2022/04/23 04:59:48;;;;;;;;;;;;;;;8.28;100.00;99235.73;1815070;79;20508;-72
2022/04/23 05:02:16;;;;;;;;;;;;;;;8.31;100.00;99243.47;1809958;79;20125;-71
2022/04/23 05:04:46;;;;;;;;;;;;;;;8.35;100.00;99252.35;1809954;79;20468;-72
2022/04/23 05:07:13;;;;;;;;;;;;;;;8.36;100.00;99276.11;1809855;78;20485;-71
2022/04/23 05:09:42;;;;;;;;;;;;;;;8.32;100.00;99291.78;1810232;79;20129;-70
2022/04/23 05:12:10;;;;;;;;;;;;;;;8.32;100.00;99308.44;1809187;79;20148;-70
2022/04/23 05:14:42;;;;;;;;;;;;;;;8.32;100.00;99328.15;1799025;79;20127;-72
2022/04/23 05:17:09;;;;;;;;;;;;;;;8.36;100.00;99342.11;1777363;81;20103;-72
2022/04/23 05:19:37;;;;;;;;;;;;;;;8.36;100.00;99361.80;1808521;79;20173;-71
2022/04/23 05:22:05;;;;;;;;;;;;;;;8.39;100.00;99379.97;1809821;79;20183;-72
2022/04/23 05:24:32;;;;;;;;;;;;;;;8.45;100.00;99390.10;1810275;78;20152;-72
2022/04/23 05:26:59;;;;;;;;;;;;;;;8.56;100.00;99395.10;1794263;79;20200;-71
2022/04/23 05:29:29;;;;;;;;;;;;;;;8.71;100.00;99397.41;1789017;79;20401;-70
2022/04/23 05:31:56;;;;;;;;;;;;;;;8.88;100.00;99391.42;1786727;80;20101;-71
2022/04/23 05:34:25;;;;;;;;;;;;;;;9.01;100.00;99392.70;1799560;79;20120;-71
2022/04/23 05:36:52;;;;;;;;;;;;;;;9.15;100.00;99389.25;1810254;79;20125;-70
2022/04/23 05:39:18;;;;;;;;;;;;;;;9.33;100.00;99394.39;1811119;79;20129;-72
2022/04/23 05:41:46;;;;;;;;;;;;;;;9.47;100.00;99390.92;1810036;79;20149;-70
2022/04/23 05:44:13;;;;;;;;;;;;;;;9.64;100.00;99388.09;1812291;79;20135;-72
2022/04/23 05:46:40;;;;;;;;;;;;;;;9.78;100.00;99399.96;1816236;79;20128;-72
2022/04/23 05:49:07;;;;;;;;;;;;;;;9.91;100.00;99412.31;1815951;79;20130;-72
2022/04/23 05:51:36;;;;;;;;;;;;;;;10.03;100.00;99430.28;1813747;79;20121;-72
2022/04/23 05:54:03;;;;;;;;;;;;;;;10.08;100.00;99449.49;1814597;79;20106;-71
2022/04/23 05:56:30;;;;;;;;;;;;;;;10.08;100.00;99469.23;1814554;79;20102;-71
2022/04/23 05:58:57;;;;;;;;;;;;;;;10.11;100.00;99473.45;1814370;79;20406;-73
2022/04/23 06:01:24;;;;;;;;;;;;;;;10.19;100.00;99473.88;1814723;79;20094;-74
2022/04/23 06:03:52;;;;;;;;;;;;;;;10.28;100.00;99483.58;1814748;79;20110;-74
2022/04/23 06:06:22;;;;;;;;;;;;;;;10.32;100.00;99498.95;1814549;79;20391;-71
2022/04/23 06:08:51;;;;;;;;;;;;;;;10.32;100.00;99520.05;1783578;80;20129;-72
2022/04/23 06:11:18;;;;;;;;;;;;;;;10.26;100.00;99532.40;1782233;79;20169;-72
2022/04/23 06:13:45;;;;;;;;;;;;;;;10.29;100.00;99539.32;1779571;80;20106;-71
2022/04/23 06:16:14;;;;;;;;;;;;;;;10.34;100.00;99537.44;1767496;80;20090;-71
2022/04/23 06:18:41;;;;;;;;;;;;;;;10.40;100.00;99545.66;1791818;80;20123;-72
2022/04/23 06:21:10;;;;;;;;;;;;;;;10.43;100.00;99539.07;1791735;80;20124;-72
2022/04/23 06:23:38;;;;;;;;;;;;;;;10.46;100.00;99541.39;1791733;80;20186;-72
2022/04/23 06:26:09;;;;;;;;;;;;;;;10.47;100.00;99542.25;1820389;79;20106;-73
2022/04/23 06:28:36;;;;;;;;;;;;;;;10.45;100.00;99550.53;1783563;79;20141;-72
2022/04/23 06:31:04;;;;;;;;;;;;;;;10.45;100.00;99554.59;1783383;80;20140;-72
2022/04/23 06:33:33;;;;;;;;;;;;;;;10.41;100.00;99559.52;1825117;77;20202;-70
2022/04/23 06:36:00;;;;;;;;;;;;;;;10.39;100.00;99564.77;1802891;79;20110;-71
2022/04/23 06:38:26;;;;;;;;;;;;;;;10.39;100.00;99558.00;1787240;80;20118;-73
2022/04/23 06:40:55;;;;;;;;;;;;;;;10.39;100.00;99553.95;1754019;80;20138;-73
2022/04/23 06:43:23;;;;;;;;;;;;;;;10.39;100.00;99556.66;1797360;79;20128;-72
2022/04/23 06:45:52;;;;;;;;;;;;;;;10.40;100.00;99555.12;1805602;79;20138;-73
2022/04/23 06:48:19;;;;;;;;;;;;;;;10.40;100.00;99547.53;1804363;79;20119;-72
2022/04/23 06:50:46;;;;;;;;;;;;;;;10.39;100.00;99541.79;1803956;79;20141;-72
2022/04/23 06:53:14;;;;;;;;;;;;;;;10.39;100.00;99529.63;1809617;79;20126;-71
2022/04/23 06:55:41;;;;;;;;;;;;;;;10.40;100.00;99517.28;1810545;79;20122;-72
2022/04/23 06:58:08;;;;;;;;;;;;;;;10.40;100.00;99505.13;1809843;79;20137;-73
2022/04/23 07:00:40;;;;;;;;;;;;;;;10.43;100.00;99503.94;1808857;79;20102;-70
2022/04/23 07:03:06;;;;;;;;;;;;;;;10.42;100.00;99509.83;1808473;79;20114;-71
2022/04/23 07:05:33;;;;;;;;;;;;;;;10.41;100.00;99515.41;1808490;79;20522;-72
2022/04/23 07:08:02;;;;;;;;;;;;;;;10.43;100.00;99526.91;1808585;79;20114;-72
2022/04/23 07:10:31;;;;;;;;;;;;;;;10.48;100.00;99539.34;1799108;79;20106;-73
2022/04/23 07:12:58;;;;;;;;;;;;;;;10.61;100.00;99524.70;1779705;79;20150;-71
2022/04/23 07:15:25;;;;;;;;;;;;;;;10.77;100.00;99513.39;1808623;79;20126;-72
2022/04/23 07:17:54;;;;;;;;;;;;;;;10.97;100.00;99498.27;1808960;79;20113;-72
2022/04/23 07:20:23;;;;;;;;;;;;;;;11.18;100.00;99484.52;1809346;79;20114;-70
2022/04/23 07:25:37;;;;;;;;;;;;;;;11.62;100.00;99493.58;1784286;79;20129;-70
2022/04/23 07:28:07;;;;;;;;;;;;;;;11.87;100.00;99506.24;1789950;79;20105;-72
2022/04/23 07:30:35;;;;;;;;;;;;;;;11.97;100.00;99521.70;1813934;78;20092;-72
2022/04/23 07:33:02;;;;;;;;;;;;;;;12.04;100.00;99538.86;1824735;79;20402;-72
2022/04/23 07:38:19;;;;;;;;;;;;;;;12.40;100.00;99537.11;1731607;83;20112;-72
2022/04/23 07:40:47;;;;;;;;;;;;;;;12.65;100.00;99549.73;1731561;82;20124;-73
2022/04/23 07:43:14;;;;;;;;;;;;;;;12.93;100.00;99563.82;1731627;83;20117;-73
2022/04/23 07:45:43;;;;;;;;;;;;;;;13.14;100.00;99588.67;1741276;82;20107;-73
2022/04/23 07:48:12;;;;;;;;;;;;;;;13.30;100.00;99596.53;1747244;82;20107;-72
2022/04/23 07:50:41;;;;;;;;;;;;;;;13.42;100.00;99606.32;1786930;79;20173;-71
2022/04/23 07:53:09;;;;;;;;;;;;;;;13.54;100.00;99616.94;1787319;80;20153;-71
2022/04/23 07:55:38;;;;;;;;;;;;;;;13.67;100.00;99638.75;1783081;80;20148;-72
2022/04/23 07:58:06;;;;;;;;;;;;;;;13.74;100.00;99658.31;1783100;80;20397;-73
2022/04/23 08:00:35;;;;;;;;;;;;;;;13.73;100.00;99676.50;1807964;78;20173;-72
2022/04/23 08:03:03;;;;;;;;;;;;;;;13.72;100.00;99695.19;1777434;80;20432;-72
2022/04/23 08:05:32;;;;;;;;;;;;;;;13.97;100.00;99686.55;1776426;80;20136;-73
2022/04/23 08:07:59;;;;;;;;;;;;;;;14.16;100.00;99697.20;1776240;80;20146;-72
2022/04/23 08:10:29;;;;;;;;;;;;;;;14.30;100.00;99708.97;1763930;79;20144;-73
2022/04/23 08:12:58;;;;;;;;;;;;;;;14.37;100.00;99716.10;1765539;80;20136;-73
2022/04/23 08:15:26;;;;;;;;;;;;;;;14.41;100.00;99730.12;1737189;81;20128;-72
2022/04/23 08:17:54;;;;;;;;;;;;;;;14.63;100.00;99718.63;1765764;81;20148;-73
2022/04/23 08:20:22;;;;;;;;;;;;;;;14.92;100.00;99717.95;1756985;80;20125;-71
2022/04/23 08:22:51;;;;;;;;;;;;;;;14.99;100.00;99735.13;1734915;82;20095;-72
2022/04/23 08:25:22;;;;;;;;;;;;;;;14.94;100.00;99731.69;1766677;81;20131;-72
2022/04/23 08:27:54;;;;;;;;;;;;;;;14.97;100.00;99735.86;1753505;82;20417;-73
2022/04/23 08:30:34;;;;;;;;;;;;;;;15.05;100.00;99744.34;1758241;82;20155;-73
2022/04/23 08:33:06;;;;;;;;;;;;;;;15.11;100.00;99737.55;1746631;82;20175;-74
2022/04/23 08:35:36;;;;;;;;;;;;;;;15.29;100.00;99757.36;1732123;82;20131;-74
2022/04/23 08:38:04;;;;;;;;;;;;;;;15.31;100.00;99787.12;1757149;80;20120;-73
2022/04/23 08:40:43;;;;;;;;;;;;;;;15.03;100.00;99807.17;1743136;82;20093;-72
2022/04/23 08:43:09;;;;;;;;;;;;;;;14.95;100.00;99816.38;1750935;82;20442;-72
2022/04/23 08:45:37;;;;;;;;;;;;;;;15.01;100.00;99813.35;1760738;81;20129;-71
2022/04/23 08:48:07;;;;;;;;;;;;;;;15.15;100.00;99818.31;1800227;79;20125;-71
2022/04/23 08:50:36;;;;;;;;;;;;;;;15.30;100.00;99835.85;1807033;79;20446;-72
2022/04/23 08:53:04;;;;;;;;;;;;;;;15.30;100.00;99893.88;1815164;79;20105;-71
2022/04/23 08:55:32;;;;;;;;;;;;;;;15.25;100.00;99915.45;1815519;79;20111;-72
2022/04/23 08:58:00;;;;;;;;;;;;;;;14.98;100.00;99937.66;1789443;79;20423;-73
2022/04/23 09:00:27;;;;;;;;;;;;;;;14.76;100.00;99958.16;1748794;82;20127;-72
2022/04/23 09:02:56;;;;;;;;;;;;;;;14.64;100.00;99957.56;1759394;79;20105;-72
2022/04/23 09:05:27;;;;;;;;;;;;;;;14.52;100.00;99953.15;1791835;79;20108;-73
2022/04/23 09:07:53;;;;;;;;;;;;;;;14.47;100.00;99952.94;1754708;82;20388;-73
2022/04/23 09:10:43;;;;;;;;;;;;;;;14.36;100.00;99950.22;1754932;82;20103;-72
2022/04/23 09:13:11;;;;;;;;;;;;;;;14.29;100.00;99947.97;1684766;84;22553;-73
2022/04/23 09:24:09;;;;;;;;;;;;;;;14.98;100.00;99931.69;1710020;84;20108;-73
2022/04/23 09:26:36;;;;;;;;;;;;;;;15.23;100.00;99926.22;1710884;84;20125;-72
2022/04/23 09:29:13;;;;;;;;;;;;;;;15.37;100.00;99918.43;1710660;84;20497;-73
2022/04/23 09:31:40;;;;;;;;;;;;;;;15.28;100.00;99927.30;1710747;83;20134;-71
2022/04/23 09:34:15;;;;;;;;;;;;;;;15.17;100.00;99923.79;1704089;83;20125;-71
2022/04/23 09:37:00;;;;;;;;;;;;;;;15.07;100.00;99916.02;1695102;85;20129;-71
2022/04/23 09:42:17;;;;;;;;;;;;;;;14.74;100.00;99911.25;1660273;87;20157;-72
2022/04/23 09:44:45;;;;;;;;;;;;;;;14.60;100.00;99915.77;1660346;85;20133;-71
2022/04/23 09:47:34;;;;;;;;;;;;;;;14.47;100.00;99902.61;1650435;87;20119;-72
2022/04/23 09:50:03;;;;;;;;;;;;;;;14.40;100.00;99897.95;1621609;88;20166;-73
2022/04/23 09:52:32;;;;;;;;;;;;;;;14.27;100.00;99895.16;1625218;88;20178;-72
2022/04/23 09:55:02;;;;;;;;;;;;;;;14.18;100.00;99902.63;1625618;88;20170;-72
2022/04/23 09:57:30;;;;;;;;;;;;;;;14.11;100.00;99894.94;1639477;87;20108;-71
2022/04/23 09:59:58;;;;;;;;;;;;;;;13.96;100.00;99888.22;1651912;87;20243;-73
2022/04/23 10:02:30;;;;;;;;;;;;;;;13.80;100.00;99880.36;1652014;87;20142;-72
2022/04/23 10:05:00;;;;;;;;;;;;;;;13.65;100.00;99875.84;1651829;87;20119;-73
2022/04/23 10:07:28;;;;;;;;;;;;;;;13.46;100.00;99858.84;1652638;87;20124;-71
2022/04/23 10:09:55;;;;;;;;;;;;;;;13.32;100.00;99851.61;1652364;87;20119;-72
2022/04/23 10:12:23;;;;;;;;;;;;;;;13.14;100.00;99839.28;1650975;87;20562;-71
2022/04/23 10:14:58;;;;;;;;;;;;;;;13.08;100.00;99845.45;1651276;87;20167;-71
2022/04/23 10:17:25;;;;;;;;;;;;;;;13.12;100.00;99841.34;1651480;87;20103;-72
2022/04/23 10:19:53;;;;;;;;;;;;;;;13.26;100.00;99854.52;1651417;87;20145;-72
2022/04/23 10:22:34;;;;;;;;;;;;;;;13.41;100.00;99855.87;1651968;87;20136;-72
2022/04/23 10:25:25;;;;;;;;;;;;;;;13.56;100.00;99855.78;1651887;87;20423;-72
2022/04/23 10:27:55;;;;;;;;;;;;;;;13.62;100.00;99857.73;1682819;85;20147;-73
2022/04/23 10:30:27;;;;;;;;;;;;;;;13.75;100.00;99857.00;1689740;85;20140;-72
2022/04/23 10:32:54;;;;;;;;;;;;;;;13.84;100.00;99871.59;1689816;85;20428;-72
2022/04/23 10:35:25;;;;;;;;;;;;;;;13.81;100.00;99862.50;1690118;85;20128;-72
2022/04/23 10:37:53;;;;;;;;;;;;;;;13.80;100.00;99864.05;1697818;83;20110;-72
2022/04/23 10:40:24;;;;;;;;;;;;;;;13.85;100.00;99873.81;1734677;83;20087;-72
2022/04/23 10:43:10;;;;;;;;;;;;;;;13.78;100.00;99869.68;1734869;83;20419;-70
2022/04/23 10:45:38;;;;;;;;;;;;;;;13.79;100.00;99862.36;1745439;81;20101;-73
2022/04/23 10:48:25;;;;;;;;;;;;;;;13.76;100.00;99856.81;1768768;81;20109;-69
2022/04/23 10:51:05;;;;;;;;;;;;;;;13.77;100.00;99861.19;1768567;81;20133;-73
2022/04/23 10:53:42;;;;;;;;;;;;;;;13.88;100.00;99849.47;1768935;81;20109;-72
2022/04/23 10:56:14;;;;;;;;;;;;;;;13.93;100.00;99850.55;1769305;81;20394;-73
2022/04/23 10:58:43;;;;;;;;;;;;;;;13.94;100.00;99844.62;1790182;79;20390;-73
2022/04/23 11:01:23;;;;;;;;;;;;;;;13.96;100.00;99839.29;1815375;78;20090;-73
2022/04/23 11:03:57;;;;;;;;;;;;;;;13.98;100.00;99840.45;1784800;79;20244;-72
2022/04/23 11:12:39;;;;;;;;;;;;;;;13.84;100.00;99837.62;1782324;79;20101;-75
2022/04/23 11:15:19;;;;;;;;;;;;;;;13.70;100.00;99843.16;1792879;78;20158;-73
2022/04/23 11:17:58;;;;;;;;;;;;;;;13.60;100.00;99836.20;1747602;82;20106;-74
2022/04/23 11:20:34;;;;;;;;;;;;;;;13.59;100.00;99844.53;1744815;82;20124;-72
2022/04/23 11:23:01;;;;;;;;;;;;;;;13.52;100.00;99859.41;1752126;82;20146;-73
2022/04/23 11:25:30;;;;;;;;;;;;;;;13.44;100.00;99855.48;1760015;82;20106;-73
2022/04/23 11:28:12;;;;;;;;;;;;;;;13.39;100.00;99850.63;1760814;82;20126;-72
2022/04/23 11:30:40;;;;;;;;;;;;;;;13.45;100.00;99864.77;1759721;82;20106;-72
2022/04/23 11:33:11;;;;;;;;;;;;;;;13.44;100.00;99865.83;1737099;81;20452;-72
2022/04/23 11:35:39;;;;;;;;;;;;;;;13.46;100.00;99863.75;1737596;81;20110;-71
2022/04/23 11:38:06;;;;;;;;;;;;;;;13.48;100.00;99858.13;1762887;81;20150;-72
2022/04/23 11:40:34;;;;;;;;;;;;;;;13.48;100.00;99860.31;1732075;83;20096;-71
2022/04/23 11:43:03;;;;;;;;;;;;;;;13.44;100.00;99865.83;1740388;83;20140;-73
2022/04/23 11:45:35;;;;;;;;;;;;;;;13.39;100.00;99850.63;1731095;81;20221;-72
2022/04/23 11:48:11;;;;;;;;;;;;;;;13.30;100.00;99849.88;1711429;84;20467;-72
2022/04/23 11:50:39;;;;;;;;;;;;;;;13.23;100.00;99843.55;1696210;85;20143;-73
2022/04/23 11:53:06;;;;;;;;;;;;;;;13.21;100.00;99852.41;1697573;85;20134;-73
2022/04/23 11:55:33;;;;;;;;;;;;;;;13.22;100.00;99840.49;1697550;85;20142;-71
2022/04/23 11:58:04;;;;;;;;;;;;;;;13.19;100.00;99842.75;1668482;86;20118;-71
2022/04/23 12:00:33;;;;;;;;;;;;;;;13.20;100.00;99839.02;1697500;85;20143;-72
2022/04/23 12:03:00;;;;;;;;;;;;;;;13.24;100.00;99836.23;1697220;85;20605;-72
2022/04/23 12:05:32;;;;;;;;;;;;;;;13.29;100.00;99837.85;1668208;86;20137;-72
2022/04/23 12:07:59;;;;;;;;;;;;;;;13.32;100.00;99823.09;1697556;85;20190;-72
2022/04/23 12:10:30;;;;;;;;;;;;;;;13.38;100.00;99814.98;1697557;85;20115;-72
2022/04/23 12:13:06;;;;;;;;;;;;;;;13.42;100.00;99804.08;1670437;84;20160;-72
2022/04/23 12:15:26;;;;;;;;;;;;;;;13.42;100.00;99793.21;1689612;85;20102;-72
2022/04/23 12:17:55;;;;;;;;;;;;;;;13.41;100.00;99790.16;1745818;82;20399;-69
2022/04/23 12:20:24;;;;;;;;;;;;;;;13.39;100.00;99793.59;1746006;82;20099;-70
2022/04/23 12:23:01;;;;;;;;;;;;;;;13.35;100.00;99777.88;1745751;82;20131;-71
2022/04/23 12:25:29;;;;;;;;;;;;;;;13.28;100.00;99762.34;1746172;82;20158;-70
2022/04/23 12:42:26;;;;;;;;;;;;;;;12.77;100.00;99733.16;1749639;82;20105;-70
2022/04/23 12:44:53;;;;;;;;;;;;;;;12.75;100.00;99724.34;1749355;82;20101;-70
2022/04/23 12:47:32;;;;;;;;;;;;;;;12.75;100.00;99712.14;1743920;79;20086;-71
2022/04/23 12:50:05;;;;;;;;;;;;;;;12.80;100.00;99705.62;1742811;82;20109;-71
2022/04/23 12:52:38;;;;;;;;;;;;;;;12.87;100.00;99705.16;1743001;82;20110;-71
2022/04/23 12:55:29;;;;;;;;;;;;;;;12.91;100.00;99703.23;1742824;82;20109;-72
2022/04/23 12:58:08;;;;;;;;;;;;;;;12.91;100.00;99696.98;1742850;82;20097;-72
2022/04/23 13:00:40;;;;;;;;;;;;;;;12.95;100.00;99707.75;1742784;82;20109;-71
2022/04/23 13:06:02;;;;;;;;;;;;;;;13.08;100.00;99698.39;1742674;82;20113;-72
2022/04/23 13:11:30;;;;;;;;;;;;;;;13.19;100.00;99691.59;1742604;82;20149;-71
2022/04/23 13:13:59;;;;;;;;;;;;;;;13.22;100.00;99685.73;1742909;82;20406;-71
2022/04/23 13:16:28;;;;;;;;;;;;;;;13.20;100.00;99691.06;1742614;82;20105;-70
2022/04/23 13:18:56;;;;;;;;;;;;;;;13.18;100.00;99692.61;1715851;82;20102;-71
2022/04/23 13:21:26;;;;;;;;;;;;;;;13.15;100.00;99677.23;1716146;84;20414;-70
2022/04/23 13:23:53;;;;;;;;;;;;;;;13.11;100.00;99679.50;1715896;84;20105;-70
2022/04/23 13:26:22;;;;;;;;;;;;;;;13.09;100.00;99681.05;1716024;82;20106;-71
2022/04/23 13:28:50;;;;;;;;;;;;;;;13.08;100.00;99687.53;1715868;84;20164;-69
2022/04/23 13:31:18;;;;;;;;;;;;;;;13.09;100.00;99677.50;1716000;84;20121;-70
2022/04/23 13:33:47;;;;;;;;;;;;;;;13.09;100.00;99666.64;1715630;83;20101;-71